Terminal Aerodrome Forecast
Issued by NWS Sioux Falls, SD

Home | Current Version | Previous Version | Text Only | Print | Product List | Glossary On
Versions: 1 2 3 4 5 6 7 8 9 10 11 12 13 14 15 16 17 18 19 20 21 22 23 24 25
000
FTUS43 KFSD 011000 AAA
TAFSUX
TAF AMD
KSUX 011054Z 0111/0206 VRB03KT 2SM BR SCT002
      TEMPO 0111/0113 1/2SM FG VV002
     FM011300 VRB03KT P6SM FEW050
     FM012100 12005KT P6SM BKN150=

USA.gov is the U.S. government's official web portal to all federal, state and local government web resources and services.